createdAt,value
2018-08-17T00:00:08.022Z,31.70
2018-08-17T00:02:36.598Z,31.70
2018-08-17T00:05:05.183Z,31.70
2018-08-17T00:07:33.691Z,31.70
2018-08-17T00:10:02.286Z,31.70
2018-08-17T00:12:31.002Z,31.50
2018-08-17T00:14:59.550Z,31.60
2018-08-17T00:17:28.139Z,31.50
2018-08-17T00:19:56.639Z,31.50
2018-08-17T00:22:25.717Z,31.50
2018-08-17T00:24:54.272Z,31.50
2018-08-17T00:27:22.791Z,31.50
2018-08-17T00:29:51.353Z,31.50
2018-08-17T00:32:20.344Z,31.30
2018-08-17T00:34:49.238Z,31.30
2018-08-17T00:37:17.789Z,31.40
2018-08-17T00:39:46.755Z,31.30
2018-08-17T00:42:15.290Z,31.40
2018-08-17T00:44:43.780Z,32.30
2018-08-17T00:47:12.270Z,32.60
2018-08-17T00:49:40.814Z,32.00
2018-08-17T00:52:09.343Z,32.40
2018-08-17T00:54:37.944Z,32.80
2018-08-17T00:57:06.503Z,34.10
2018-08-17T00:59:35.110Z,33.10
2018-08-17T01:02:03.684Z,33.30
2018-08-17T01:04:32.232Z,33.20
2018-08-17T01:07:00.771Z,33.60
2018-08-17T01:09:29.325Z,33.60
2018-08-17T01:11:57.862Z,33.70
2018-08-17T01:14:26.632Z,33.40
2018-08-17T01:16:55.169Z,33.70
2018-08-17T01:19:23.756Z,33.80
2018-08-17T01:21:52.246Z,34.20
2018-08-17T01:24:20.864Z,34.40
2018-08-17T01:26:49.362Z,34.70
2018-08-17T01:29:17.926Z,35.40
2018-08-17T01:31:46.426Z,35.50
2018-08-17T01:34:14.998Z,35.30
2018-08-17T01:36:43.507Z,35.60
2018-08-17T01:39:11.994Z,36.00
2018-08-17T01:41:40.648Z,36.10
2018-08-17T01:44:09.173Z,36.30
2018-08-17T01:46:37.695Z,36.40
2018-08-17T01:49:07.702Z,36.30
2018-08-17T01:51:36.928Z,36.90
2018-08-17T01:54:05.486Z,37.00
2018-08-17T01:56:33.983Z,36.30
2018-08-17T01:59:02.624Z,36.20
2018-08-17T02:01:31.137Z,36.30
2018-08-17T02:03:59.652Z,37.30
2018-08-17T02:06:28.171Z,36.40
2018-08-17T02:08:58.774Z,36.60
2018-08-17T02:11:27.398Z,36.60
2018-08-17T02:13:55.938Z,36.20
2018-08-17T02:16:24.455Z,36.60
2018-08-17T02:18:53.016Z,37.00
2018-08-17T02:21:21.507Z,36.40
2018-08-17T02:23:50.035Z,37.10
2018-08-17T02:26:18.519Z,37.20
2018-08-17T02:28:47.372Z,37.20
2018-08-17T02:31:15.999Z,37.20
2018-08-17T02:33:44.558Z,37.10
2018-08-17T02:36:13.038Z,36.80
2018-08-17T02:38:41.545Z,36.80
2018-08-17T02:41:10.043Z,36.40
2018-08-17T02:43:38.580Z,36.60
2018-08-17T02:46:07.141Z,36.40
2018-08-17T02:48:35.690Z,36.10
2018-08-17T02:51:04.217Z,36.30
2018-08-17T02:53:33.401Z,36.40
2018-08-17T02:56:01.869Z,36.40
2018-08-17T02:58:30.441Z,36.30
2018-08-17T03:00:59.354Z,36.30
2018-08-17T03:03:28.182Z,36.30
2018-08-17T03:05:56.690Z,36.40
2018-08-17T03:08:25.231Z,36.10
2018-08-17T03:10:53.894Z,36.10
2018-08-17T03:13:22.397Z,36.10
2018-08-17T03:15:50.887Z,36.00
2018-08-17T03:18:19.395Z,36.40
2018-08-17T03:20:47.870Z,36.30
2018-08-17T03:23:16.370Z,36.20
2018-08-17T03:25:45.229Z,36.40
2018-08-17T03:28:13.782Z,36.40
2018-08-17T03:30:42.285Z,36.90
2018-08-17T03:33:10.827Z,37.80
2018-08-17T03:35:39.291Z,36.90
2018-08-17T03:38:07.856Z,36.90
2018-08-17T03:40:36.667Z,36.90
2018-08-17T03:43:05.612Z,36.90
2018-08-17T03:45:34.299Z,36.90
2018-08-17T03:48:02.773Z,36.90
2018-08-17T03:50:31.315Z,36.80
2018-08-17T03:52:59.889Z,37.80
2018-08-17T03:55:29.138Z,37.90
2018-08-17T03:57:57.618Z,37.80
2018-08-17T04:00:26.211Z,38.00
2018-08-17T04:02:54.694Z,38.00
2018-08-17T04:05:23.319Z,38.00
2018-08-17T04:07:51.818Z,38.80
2018-08-17T04:10:20.594Z,37.40
2018-08-17T04:12:49.135Z,37.80
2018-08-17T04:15:17.722Z,37.60
2018-08-17T04:17:46.941Z,37.20
2018-08-17T04:20:15.552Z,37.40
2018-08-17T04:22:44.170Z,37.40
2018-08-17T04:25:12.698Z,36.90
2018-08-17T04:27:41.459Z,37.00
2018-08-17T04:30:10.095Z,37.80
2018-08-17T04:32:38.822Z,37.00
2018-08-17T04:35:07.947Z,37.20
2018-08-17T04:37:36.507Z,37.30
2018-08-17T04:40:05.285Z,37.20
2018-08-17T04:42:34.062Z,37.30
2018-08-17T04:45:02.598Z,37.40
2018-08-17T04:47:31.082Z,36.90
2018-08-17T04:49:59.633Z,36.80
2018-08-17T04:52:28.402Z,36.20
2018-08-17T04:54:56.889Z,36.00
2018-08-17T04:57:25.395Z,35.60
2018-08-17T04:59:53.950Z,35.30
2018-08-17T05:02:22.861Z,35.20
2018-08-17T05:04:51.399Z,34.90
2018-08-17T05:07:19.944Z,34.50
2018-08-17T05:09:48.835Z,34.30
2018-08-17T05:12:18.038Z,34.10
2018-08-17T05:14:46.607Z,33.90
2018-08-17T05:17:15.737Z,33.40
2018-08-17T05:19:44.384Z,33.00
2018-08-17T05:22:12.914Z,32.90
2018-08-17T05:24:41.520Z,32.10
2018-08-17T05:27:10.037Z,32.20
2018-08-17T05:29:38.563Z,32.40
2018-08-17T05:32:07.562Z,32.50
2018-08-17T05:34:36.382Z,32.50
2018-08-17T05:37:05.395Z,32.60
2018-08-17T05:39:34.001Z,32.80
2018-08-17T05:42:02.569Z,32.50
2018-08-17T05:44:31.319Z,32.00
2018-08-17T05:46:59.860Z,31.70
2018-08-17T05:49:28.395Z,31.50
2018-08-17T05:51:57.662Z,31.30
2018-08-17T05:54:26.214Z,31.20
2018-08-17T05:56:54.735Z,30.80
2018-08-17T05:59:23.293Z,30.40
2018-08-17T06:01:51.774Z,30.20
2018-08-17T06:04:20.320Z,29.90
2018-08-17T06:06:48.846Z,29.90
2018-08-17T06:09:18.759Z,29.70
2018-08-17T06:11:47.275Z,29.70
2018-08-17T06:14:16.681Z,29.50
2018-08-17T06:16:45.203Z,29.30
2018-08-17T06:19:13.736Z,29.10
2018-08-17T06:21:42.381Z,29.60
2018-08-17T06:24:10.988Z,28.90
2018-08-17T06:26:39.541Z,28.70
2018-08-17T06:29:08.084Z,28.70
2018-08-17T06:31:36.667Z,28.60
2018-08-17T06:34:05.186Z,28.50
2018-08-17T06:36:33.776Z,28.30
2018-08-17T06:39:02.347Z,28.10
2018-08-17T06:41:30.896Z,27.90
2018-08-17T06:43:59.456Z,28.00
2018-08-17T06:46:29.274Z,28.00
2018-08-17T06:48:57.791Z,28.10
2018-08-17T06:51:26.600Z,28.10
2018-08-17T06:53:55.546Z,27.60
2018-08-17T06:56:24.238Z,27.50
2018-08-17T06:58:52.731Z,27.30
2018-08-17T07:01:21.246Z,27.10
2018-08-17T07:03:49.869Z,26.80
2018-08-17T07:06:18.394Z,26.60
2018-08-17T07:08:47.030Z,26.40
2018-08-17T07:11:15.583Z,26.20
2018-08-17T07:13:44.127Z,25.90
2018-08-17T07:16:12.689Z,25.70
2018-08-17T07:18:41.202Z,25.60
2018-08-17T07:21:10.090Z,25.50
2018-08-17T07:23:38.731Z,24.90
2018-08-17T07:26:07.605Z,25.00
2018-08-17T07:28:36.259Z,25.00
2018-08-17T07:31:04.839Z,24.90
2018-08-17T07:33:33.358Z,24.90
2018-08-17T07:36:02.612Z,24.70
2018-08-17T07:38:31.245Z,24.70
2018-08-17T07:40:59.757Z,24.40
2018-08-17T07:43:28.311Z,24.30
2018-08-17T07:45:56.814Z,24.20
2018-08-17T07:48:25.571Z,23.70
2018-08-17T07:50:54.109Z,23.80
2018-08-17T07:53:22.746Z,23.80
2018-08-17T07:55:51.306Z,24.00
2018-08-17T07:58:20.237Z,24.00
2018-08-17T08:00:48.796Z,24.10
2018-08-17T08:03:17.359Z,24.20
2018-08-17T08:05:45.879Z,24.20
2018-08-17T08:08:14.460Z,23.70
2018-08-17T08:10:43.995Z,23.20
2018-08-17T08:13:12.531Z,23.10
2018-08-17T08:15:41.010Z,22.70
2018-08-17T08:18:10.215Z,22.50
2018-08-17T08:20:41.374Z,22.50
2018-08-17T08:23:22.113Z,22.30
2018-08-17T08:25:50.774Z,22.00
2018-08-17T08:28:19.287Z,21.90
2018-08-17T08:30:48.213Z,21.80
2018-08-17T08:33:17.124Z,21.30
2018-08-17T08:35:45.896Z,20.90
2018-08-17T08:38:14.427Z,20.90
2018-08-17T08:40:43.031Z,20.70
2018-08-17T08:43:11.610Z,20.40
2018-08-17T08:45:40.359Z,20.20
2018-08-17T08:48:09.866Z,19.80
2018-08-17T08:50:38.918Z,19.40
2018-08-17T08:53:08.203Z,19.30
2018-08-17T08:55:36.786Z,19.00
2018-08-17T08:58:05.611Z,19.00
2018-08-17T09:00:34.280Z,18.60
2018-08-17T09:03:02.801Z,18.40
2018-08-17T09:05:31.354Z,18.00
2018-08-17T09:07:59.886Z,17.30
2018-08-17T09:10:29.860Z,17.10
2018-08-17T09:12:58.943Z,17.10
2018-08-17T09:15:27.677Z,17.70
2018-08-17T09:17:56.322Z,16.80
2018-08-17T09:20:25.150Z,16.60
2018-08-17T09:22:53.666Z,16.60
2018-08-17T09:25:22.283Z,16.60
2018-08-17T09:27:50.987Z,16.40
2018-08-17T09:30:20.205Z,16.20
2018-08-17T09:32:48.766Z,15.80
2018-08-17T09:35:17.282Z,15.60
2018-08-17T09:37:45.966Z,15.60
2018-08-17T09:40:14.647Z,15.40
2018-08-17T09:42:43.503Z,15.10
2018-08-17T09:45:14.296Z,14.90
2018-08-17T09:47:42.861Z,14.40
2018-08-17T09:50:13.939Z,14.40
2018-08-17T09:52:42.522Z,14.40
2018-08-17T09:55:11.305Z,14.50
2018-08-17T09:57:43.737Z,14.50
2018-08-17T10:00:12.406Z,14.50
2018-08-17T10:02:46.332Z,14.50
2018-08-17T10:05:20.407Z,14.50
2018-08-17T10:07:54.231Z,14.50
2018-08-17T10:10:24.827Z,14.50
2018-08-17T10:12:53.610Z,14.50
2018-08-17T10:15:23.791Z,13.80
2018-08-17T10:17:52.516Z,14.50
2018-08-17T10:20:22.543Z,14.60
2018-08-17T10:22:51.673Z,14.60
2018-08-17T10:25:22.628Z,14.60
2018-08-17T10:27:52.536Z,14.60
2018-08-17T10:30:22.030Z,14.60
2018-08-17T10:32:53.463Z,14.70
2018-08-17T10:35:23.837Z,14.70
2018-08-17T10:37:54.382Z,14.80
2018-08-17T10:40:23.482Z,15.30
2018-08-17T10:42:52.836Z,14.10
2018-08-17T10:45:22.639Z,13.50
2018-08-17T10:47:51.851Z,13.10
2018-08-17T10:50:21.762Z,13.30
2018-08-17T10:52:52.292Z,13.20
2018-08-17T10:55:21.824Z,13.30
2018-08-17T10:57:50.621Z,13.40
2018-08-17T11:00:20.602Z,13.40
2018-08-17T11:02:49.250Z,13.20
2018-08-17T11:05:18.578Z,13.20
2018-08-17T11:07:48.668Z,13.30
2018-08-17T11:10:18.834Z,13.60
2018-08-17T11:12:47.960Z,13.30
2018-08-17T11:15:16.790Z,12.70
2018-08-17T11:17:46.367Z,12.40
2018-08-17T11:20:16.481Z,12.40
2018-08-17T11:22:45.213Z,12.60
2018-08-17T11:25:13.806Z,11.90
2018-08-17T11:27:42.578Z,12.70
2018-08-17T11:30:13.104Z,12.40
2018-08-17T11:32:42.314Z,11.90
2018-08-17T11:35:11.068Z,12.10
2018-08-17T11:37:40.838Z,12.00
2018-08-17T11:40:10.492Z,12.00
2018-08-17T11:42:45.670Z,11.90
2018-08-17T11:45:17.851Z,12.20
2018-08-17T11:47:47.203Z,12.90
2018-08-17T11:50:17.358Z,12.60
2018-08-17T11:52:54.291Z,12.80
2018-08-17T11:55:23.895Z,12.50
2018-08-17T11:57:52.731Z,12.00
2018-08-17T12:00:21.221Z,12.10
2018-08-17T12:02:49.789Z,12.70
2018-08-17T12:05:19.355Z,12.30
2018-08-17T12:07:48.485Z,12.20
2018-08-17T12:10:17.557Z,12.10
2018-08-17T12:12:46.919Z,12.10
2018-08-17T12:15:15.923Z,11.80
2018-08-17T12:17:44.443Z,11.40
2018-08-17T12:20:12.966Z,11.70
2018-08-17T12:22:41.491Z,11.60
2018-08-17T12:25:10.879Z,12.10
2018-08-17T12:27:41.679Z,12.60
2018-08-17T12:30:10.296Z,12.20
2018-08-17T12:32:38.816Z,11.70
2018-08-17T12:35:07.470Z,11.80
2018-08-17T12:37:36.057Z,11.50
2018-08-17T12:40:04.708Z,11.70
2018-08-17T12:42:36.342Z,11.50
2018-08-17T12:45:10.562Z,11.10
2018-08-17T12:47:39.088Z,11.20
2018-08-17T12:50:08.615Z,11.60
2018-08-17T12:52:38.684Z,11.60
2018-08-17T12:55:07.246Z,11.20
2018-08-17T12:57:40.717Z,10.80
2018-08-17T13:00:09.336Z,10.80
2018-08-17T13:02:37.850Z,10.50
2018-08-17T13:05:06.467Z,10.60
2018-08-17T13:07:35.031Z,11.00
2018-08-17T13:10:03.879Z,10.20
2018-08-17T13:12:32.640Z,10.30
2018-08-17T13:15:01.162Z,9.50
2018-08-17T13:17:37.978Z,8.60
2018-08-17T13:20:07.222Z,8.30
2018-08-17T13:22:36.288Z,7.60
2018-08-17T13:25:05.749Z,6.70
2018-08-17T13:27:35.078Z,5.80
2018-08-17T13:30:03.970Z,5.10
2018-08-17T13:32:32.661Z,5.40
2018-08-17T13:35:01.226Z,4.10
2018-08-17T13:37:30.450Z,3.50
2018-08-17T13:39:59.068Z,2.90
2018-08-17T13:42:27.733Z,1.80
2018-08-17T13:44:56.240Z,1.30
2018-08-17T13:47:26.058Z,1.00
2018-08-17T13:49:54.601Z,1.00
2018-08-17T13:52:23.297Z,1.00
2018-08-17T13:54:52.451Z,1.00
2018-08-17T13:57:21.030Z,1.00
2018-08-17T13:59:49.599Z,1.00
2018-08-17T14:02:18.299Z,1.00
2018-08-17T14:04:46.702Z,1.00
2018-08-17T14:07:15.227Z,1.00
2018-08-17T14:09:43.906Z,1.00
2018-08-17T14:12:12.539Z,1.00
2018-08-17T14:14:41.449Z,1.00
2018-08-17T14:17:10.341Z,1.00
2018-08-17T14:19:38.946Z,1.60
2018-08-17T14:22:07.703Z,2.40
2018-08-17T14:24:36.939Z,3.10
2018-08-17T14:27:05.537Z,3.40
2018-08-17T14:29:34.038Z,4.00
2018-08-17T14:32:02.578Z,5.20
2018-08-17T14:34:31.046Z,4.30
2018-08-17T14:36:59.798Z,4.10
2018-08-17T14:39:28.518Z,4.00
2018-08-17T14:42:00.075Z,4.70
2018-08-17T14:44:29.678Z,4.80
2018-08-17T14:46:58.589Z,5.00
2018-08-17T14:49:27.552Z,5.20
2018-08-17T14:51:56.125Z,5.60
2018-08-17T14:54:24.666Z,6.30
2018-08-17T14:56:53.589Z,6.20
2018-08-17T14:59:22.137Z,6.50
2018-08-17T15:01:51.986Z,6.60
2018-08-17T15:04:20.825Z,6.70
2018-08-17T15:06:50.025Z,6.80
2018-08-17T15:09:19.243Z,6.90
2018-08-17T15:11:48.070Z,7.00
2018-08-17T15:14:16.562Z,7.50
2018-08-17T15:16:45.094Z,7.30
2018-08-17T15:19:13.598Z,7.60
2018-08-17T15:21:42.259Z,6.90
2018-08-17T15:24:11.428Z,6.50
2018-08-17T15:26:40.280Z,7.00
2018-08-17T15:29:09.650Z,6.90
2018-08-17T15:31:38.518Z,6.70
2018-08-17T15:34:07.121Z,6.90
2018-08-17T15:36:35.649Z,7.20
2018-08-17T15:39:05.711Z,6.80
2018-08-17T15:41:39.610Z,7.20
2018-08-17T15:44:11.565Z,7.30
2018-08-17T15:46:40.157Z,7.30
2018-08-17T15:49:09.906Z,7.60
2018-08-17T15:51:38.567Z,7.00
2018-08-17T15:54:07.113Z,5.60
2018-08-17T15:56:35.652Z,4.90
2018-08-17T15:59:04.597Z,3.80
2018-08-17T16:01:33.193Z,2.30
2018-08-17T16:04:01.821Z,1.00
2018-08-17T16:06:31.045Z,1.00
2018-08-17T16:08:59.826Z,1.00
2018-08-17T16:11:28.505Z,1.00
2018-08-17T16:13:57.240Z,1.50
2018-08-17T16:16:25.821Z,1.10
2018-08-17T16:18:55.539Z,1.70
2018-08-17T16:21:24.042Z,2.60
2018-08-17T16:23:53.536Z,3.20
2018-08-17T16:26:23.738Z,3.70
2018-08-17T16:28:52.363Z,3.50
2018-08-17T16:31:21.517Z,3.80
2018-08-17T16:33:50.248Z,4.10
2018-08-17T16:36:18.776Z,5.00
2018-08-17T16:38:47.624Z,4.90
2018-08-17T16:41:16.181Z,5.10
2018-08-17T16:43:46.834Z,5.30
2018-08-17T16:46:15.685Z,5.70
2018-08-17T16:48:44.397Z,6.30
2018-08-17T16:51:13.245Z,6.00
2018-08-17T16:53:41.851Z,6.00
2018-08-17T16:56:10.441Z,6.40
2018-08-17T16:58:39.047Z,6.20
2018-08-17T17:01:07.662Z,6.50
2018-08-17T17:03:36.186Z,6.50
2018-08-17T17:06:05.629Z,6.60
2018-08-17T17:08:34.457Z,6.20
2018-08-17T17:11:03.294Z,6.90
2018-08-17T17:13:32.266Z,6.90
2018-08-17T17:16:00.831Z,7.00
2018-08-17T17:18:29.992Z,7.50
2018-08-17T17:20:58.568Z,7.40
2018-08-17T17:23:27.083Z,7.30
2018-08-17T17:25:56.538Z,7.60
2018-08-17T17:28:30.182Z,7.90
2018-08-17T17:30:59.335Z,7.60
2018-08-17T17:33:28.586Z,7.70
2018-08-17T17:35:57.179Z,8.00
2018-08-17T17:38:25.735Z,7.90
2018-08-17T17:40:55.711Z,8.00
2018-08-17T17:43:24.223Z,8.40
2018-08-17T17:45:52.752Z,8.70
2018-08-17T17:48:21.327Z,8.80
2018-08-17T17:50:51.423Z,9.00
2018-08-17T17:53:19.993Z,9.10
2018-08-17T17:55:50.388Z,9.20
2018-08-17T17:58:20.361Z,9.40
2018-08-17T18:00:58.387Z,9.70
2018-08-17T18:03:28.923Z,9.90
2018-08-17T18:06:01.921Z,10.20
2018-08-17T18:08:30.909Z,10.20
2018-08-17T18:10:59.672Z,10.30
2018-08-17T18:13:28.524Z,10.60
2018-08-17T18:15:57.094Z,10.80
2018-08-17T18:18:25.983Z,10.90
2018-08-17T18:20:54.726Z,11.00
2018-08-17T18:23:23.421Z,11.30
2018-08-17T18:25:52.035Z,11.50
2018-08-17T18:28:20.793Z,11.70
2018-08-17T18:30:49.383Z,11.90
2018-08-17T18:33:17.890Z,12.40
2018-08-17T18:35:46.462Z,13.10
2018-08-17T18:38:14.982Z,13.80
2018-08-17T18:40:44.137Z,13.10
2018-08-17T18:43:12.659Z,13.10
2018-08-17T18:45:41.386Z,13.00
2018-08-17T18:48:10.488Z,13.00
2018-08-17T18:50:39.179Z,12.90
2018-08-17T18:53:07.790Z,12.20
2018-08-17T18:55:37.089Z,13.00
2018-08-17T18:58:05.845Z,13.80
2018-08-17T19:00:34.575Z,14.10
2018-08-17T19:03:03.171Z,14.50
2018-08-17T19:05:31.744Z,14.30
2018-08-17T19:08:00.434Z,14.50
2018-08-17T19:10:29.080Z,14.90
2018-08-17T19:12:57.603Z,15.10
2018-08-17T19:15:26.368Z,15.20
2018-08-17T19:17:54.945Z,15.30
2018-08-17T19:20:23.528Z,15.30
2018-08-17T19:22:52.026Z,15.70
2018-08-17T19:25:20.565Z,15.80
2018-08-17T19:27:49.088Z,16.00
2018-08-17T19:30:26.699Z,16.30
2018-08-17T19:32:57.775Z,16.40
2018-08-17T19:35:26.376Z,16.40
2018-08-17T19:37:54.970Z,16.60
2018-08-17T19:40:23.871Z,17.00
2018-08-17T19:42:53.432Z,17.10
2018-08-17T19:45:22.045Z,17.10
2018-08-17T19:47:51.142Z,17.40
2018-08-17T19:50:19.776Z,17.70
2018-08-17T19:52:48.532Z,17.90
2018-08-17T19:55:17.459Z,17.90
2018-08-17T19:57:46.391Z,18.20
2018-08-17T20:00:15.049Z,19.20
2018-08-17T20:02:43.544Z,18.40
2018-08-17T20:05:12.118Z,18.90
2018-08-17T20:07:40.792Z,19.50
2018-08-17T20:10:10.715Z,19.50
2018-08-17T20:12:39.556Z,20.90
2018-08-17T20:15:08.802Z,20.90
2018-08-17T20:17:38.053Z,21.50
2018-08-17T20:20:09.030Z,22.70
2018-08-17T20:22:37.614Z,23.00
2018-08-17T20:25:14.180Z,23.00
2018-08-17T20:27:43.059Z,23.20
2018-08-17T20:30:17.031Z,24.20
2018-08-17T20:32:46.807Z,24.20
2018-08-17T20:35:15.633Z,24.20
2018-08-17T20:37:46.222Z,24.20
2018-08-17T20:40:15.151Z,25.20
2018-08-17T20:42:44.114Z,25.50
2018-08-17T20:45:13.216Z,26.30
2018-08-17T20:47:44.588Z,26.90
2018-08-17T20:50:15.596Z,26.80
2018-08-17T20:53:01.534Z,27.10
2018-08-17T20:55:30.204Z,27.20
2018-08-17T20:57:59.286Z,26.40
2018-08-17T21:00:29.151Z,28.20
2018-08-17T21:02:58.356Z,28.20
2018-08-17T21:05:26.938Z,28.20
2018-08-17T21:07:55.521Z,28.50
2018-08-17T21:10:24.374Z,27.90
2018-08-17T21:12:53.093Z,28.90
2018-08-17T21:15:21.715Z,29.00
2018-08-17T21:17:50.257Z,28.80
2018-08-17T21:20:18.894Z,29.80
2018-08-17T21:22:47.529Z,29.50
2018-08-17T21:25:16.116Z,29.80
2018-08-17T21:27:44.662Z,29.70
2018-08-17T21:30:13.277Z,30.60
2018-08-17T21:32:41.822Z,32.30
2018-08-17T21:35:11.320Z,32.50
2018-08-17T21:37:40.124Z,33.20
2018-08-17T21:40:14.607Z,40.40
2018-08-17T21:42:43.198Z,40.60
2018-08-17T21:45:11.817Z,61.10
2018-08-17T21:47:40.302Z,72.00
2018-08-17T21:50:16.076Z,86.60
2018-08-17T21:52:45.547Z,87.80
2018-08-17T21:55:14.465Z,93.10
2018-08-17T21:57:43.532Z,98.30
2018-08-17T22:00:26.656Z,99.90
2018-08-17T22:02:55.165Z,99.90
2018-08-17T22:05:28.301Z,99.90
2018-08-17T22:07:57.054Z,99.90
2018-08-17T22:10:25.771Z,99.90
2018-08-17T22:12:54.512Z,99.90
2018-08-17T22:15:25.454Z,99.90
2018-08-17T22:17:53.980Z,99.90
2018-08-17T22:20:22.556Z,99.90
2018-08-17T22:22:51.077Z,99.90
2018-08-17T22:25:19.660Z,99.90
2018-08-17T22:27:49.375Z,99.90
2018-08-17T22:30:22.849Z,99.90
2018-08-17T22:32:51.388Z,99.90
2018-08-17T22:35:20.686Z,99.90
2018-08-17T22:37:49.098Z,99.90
2018-08-17T22:40:17.685Z,99.90
2018-08-17T22:42:47.570Z,99.90
2018-08-17T22:45:16.376Z,99.90
2018-08-17T22:47:45.074Z,99.90
2018-08-17T22:50:13.647Z,99.90
2018-08-17T22:52:43.092Z,99.90
2018-08-17T22:55:11.725Z,99.90
2018-08-17T22:57:40.218Z,99.90
2018-08-17T23:00:20.728Z,99.90
2018-08-17T23:02:50.418Z,99.90
2018-08-17T23:05:20.340Z,99.90
2018-08-17T23:07:48.881Z,99.90
2018-08-17T23:10:19.915Z,99.90
2018-08-17T23:12:49.994Z,99.90
2018-08-17T23:15:18.620Z,99.90
2018-08-17T23:17:49.245Z,99.90
2018-08-17T23:20:21.990Z,99.90
2018-08-17T23:22:52.921Z,99.90
2018-08-17T23:25:21.486Z,99.90
2018-08-17T23:27:50.902Z,99.90
2018-08-17T23:30:19.499Z,99.90
2018-08-17T23:32:48.660Z,99.90
2018-08-17T23:35:17.418Z,99.90
2018-08-17T23:37:45.958Z,99.90
2018-08-17T23:40:14.519Z,99.90
2018-08-17T23:42:43.962Z,99.90
2018-08-17T23:45:14.340Z,99.90
2018-08-17T23:47:43.251Z,99.90
2018-08-17T23:50:13.528Z,99.90
2018-08-17T23:52:42.476Z,99.90
2018-08-17T23:55:19.182Z,99.90
2018-08-17T23:57:47.815Z,99.90
